createdAt,value
2018-02-12T00:03:17.798Z,3.60
2018-02-12T00:08:22.258Z,4.07
2018-02-12T00:13:26.479Z,4.43
2018-02-12T00:18:29.616Z,4.87
2018-02-12T00:23:33.479Z,4.90
2018-02-12T00:28:36.815Z,5.00
2018-02-12T00:33:41.234Z,5.60
2018-02-12T00:38:45.849Z,5.30
2018-02-12T00:43:49.688Z,5.37
2018-02-12T00:48:53.607Z,5.60
2018-02-12T00:53:58.043Z,5.72
2018-02-12T00:59:02.709Z,5.87
2018-02-12T01:04:05.783Z,5.20
2018-02-12T01:09:10.468Z,5.60
2018-02-12T01:14:13.584Z,5.73
2018-02-12T01:19:16.660Z,5.90
2018-02-12T01:24:19.779Z,6.43
2018-02-12T01:29:22.854Z,6.10
2018-02-12T01:34:26.720Z,6.27
2018-02-12T01:39:30.355Z,6.03
2018-02-12T01:44:33.857Z,7.10
2018-02-12T01:49:36.998Z,7.87
2018-02-12T01:54:40.876Z,7.17
2018-02-12T01:59:43.951Z,7.27
2018-02-12T02:04:48.431Z,7.77
2018-02-12T02:09:52.854Z,7.60
2018-02-12T02:14:55.963Z,8.00
2018-02-12T02:20:00.215Z,7.73
2018-02-12T02:25:03.802Z,7.53
2018-02-12T02:30:08.959Z,7.20
2018-02-12T02:35:13.166Z,12.00
2018-02-12T02:40:16.297Z,7.87
2018-02-12T02:45:20.195Z,7.53
2018-02-12T02:50:24.663Z,8.40
2018-02-12T02:55:29.328Z,8.10
2018-02-12T03:00:33.339Z,11.00
2018-02-12T03:05:36.431Z,7.80
2018-02-12T03:10:40.853Z,7.93
2018-02-12T03:15:44.436Z,8.85
2018-02-12T03:20:48.923Z,8.77
2018-02-12T03:25:52.440Z,10.17
2018-02-12T03:30:56.369Z,8.67
2018-02-12T03:36:01.424Z,8.30
2018-02-12T03:41:04.490Z,9.23
2018-02-12T03:46:08.915Z,9.23
2018-02-12T03:51:13.504Z,8.93
2018-02-12T03:56:17.993Z,8.67
2018-02-12T04:01:22.434Z,10.43
2018-02-12T04:06:25.505Z,12.13
2018-02-12T04:11:29.734Z,10.50
2018-02-12T04:16:34.152Z,9.30
2018-02-12T04:21:38.574Z,12.27
2018-02-12T04:26:42.042Z,8.87
2018-02-12T04:31:46.658Z,10.10
2018-02-12T04:36:49.769Z,10.97
2018-02-12T04:41:52.858Z,12.73
2018-02-12T04:46:55.968Z,11.53
2018-02-12T04:52:00.385Z,11.02
2018-02-12T04:57:04.838Z,11.27
2018-02-12T05:02:08.899Z,13.80
2018-02-12T05:07:13.494Z,11.48
2018-02-12T05:12:17.953Z,9.80
2018-02-12T05:17:21.414Z,8.57
2018-02-12T05:22:25.899Z,10.27
2018-02-12T05:27:29.374Z,9.30
2018-02-12T05:32:33.162Z,10.37
2018-02-12T05:37:37.347Z,9.38
2018-02-12T05:42:41.761Z,9.80
2018-02-12T05:47:46.215Z,9.17
2018-02-12T05:52:50.642Z,10.43
2018-02-12T05:57:55.249Z,9.50
2018-02-12T06:02:58.330Z,11.67
2018-02-12T06:08:03.089Z,12.83
2018-02-12T06:13:06.417Z,11.07
2018-02-12T06:18:10.964Z,13.03
2018-02-12T06:23:15.407Z,9.43
2018-02-12T06:28:19.857Z,10.53
2018-02-12T06:33:24.434Z,13.10
2018-02-12T06:38:27.537Z,12.33
2018-02-12T06:43:31.760Z,11.20
2018-02-12T06:48:34.872Z,12.67
2018-02-12T06:53:39.295Z,13.67
2018-02-12T06:58:43.189Z,11.73
2018-02-12T07:03:46.227Z,11.23
2018-02-12T07:08:49.317Z,11.93
2018-02-12T07:13:53.898Z,12.50
2018-02-12T07:18:57.007Z,12.10
2018-02-12T07:24:00.866Z,16.83
2018-02-12T07:29:04.742Z,15.07
2018-02-12T07:34:08.954Z,11.03
2018-02-12T07:39:12.130Z,9.73
2018-02-12T07:44:15.571Z,11.38
2018-02-12T07:49:19.066Z,12.93
2018-02-12T07:54:23.272Z,12.30
2018-02-12T07:59:26.402Z,13.13
2018-02-12T08:04:30.241Z,16.37
2018-02-12T08:09:33.342Z,17.77
2018-02-12T08:14:37.259Z,16.03
2018-02-12T08:19:41.122Z,13.70
2018-02-12T08:24:44.191Z,11.13
2018-02-12T08:29:48.027Z,11.12
2018-02-12T08:34:51.494Z,10.13
2018-02-12T08:39:55.924Z,10.03
2018-02-12T08:45:00.150Z,11.47
2018-02-12T08:50:03.218Z,11.20
2018-02-12T08:55:07.062Z,9.87
2018-02-12T09:00:10.130Z,12.30
2018-02-12T09:05:13.208Z,10.33
2018-02-12T09:10:16.284Z,7.72
2018-02-12T09:15:19.422Z,10.18
2018-02-12T09:20:23.665Z,7.03
2018-02-12T09:25:28.254Z,8.00
2018-02-12T09:30:31.367Z,14.52
2018-02-12T09:35:35.225Z,12.97
2018-02-12T09:40:38.293Z,10.45
2018-02-12T09:45:41.399Z,8.85
2018-02-12T09:50:45.828Z,9.00
2018-02-12T09:55:49.705Z,11.10
2018-02-12T10:00:53.538Z,10.43
2018-02-12T10:05:56.615Z,13.57
2018-02-12T10:11:00.486Z,6.70
2018-02-12T10:16:03.555Z,7.60
2018-02-12T10:21:06.662Z,9.73
2018-02-12T10:26:09.765Z,7.97
2018-02-12T10:31:12.840Z,13.30
2018-02-12T10:36:17.227Z,13.40
2018-02-12T10:41:20.323Z,6.03
2018-02-12T10:46:23.782Z,8.60
2018-02-12T10:51:26.856Z,9.40
2018-02-12T10:56:30.693Z,10.60
2018-02-12T11:01:35.139Z,7.67
2018-02-12T11:06:39.642Z,10.10
2018-02-12T11:11:43.458Z,5.60
2018-02-12T11:16:47.707Z,7.47
2018-02-12T11:21:50.849Z,7.60
2018-02-12T11:26:53.976Z,10.40
2018-02-12T11:31:57.082Z,8.87
2018-02-12T11:37:01.710Z,8.70
2018-02-12T11:42:05.515Z,6.83
2018-02-12T11:47:08.626Z,8.83
2018-02-12T11:52:12.086Z,9.13
2018-02-12T11:57:15.955Z,7.47
2018-02-12T12:02:19.039Z,17.50
2018-02-12T12:07:22.154Z,6.78
2018-02-12T12:12:26.095Z,6.70
2018-02-12T12:17:29.953Z,16.58
2018-02-12T12:22:33.068Z,9.20
2018-02-12T12:27:36.894Z,9.67
2018-02-12T12:32:39.967Z,5.87
2018-02-12T12:37:44.199Z,5.13
2018-02-12T12:42:48.070Z,5.73
2018-02-12T12:47:52.127Z,6.43
2018-02-12T12:53:00.641Z,6.13
2018-02-12T12:58:04.566Z,8.53
2018-02-12T13:03:08.423Z,6.30
2018-02-12T13:08:11.582Z,7.60
2018-02-12T13:13:16.082Z,4.83
2018-02-12T13:18:19.087Z,16.43
2018-02-12T13:23:22.923Z,7.63
2018-02-12T13:28:26.448Z,7.63
2018-02-12T13:33:29.517Z,7.57
2018-02-12T13:38:34.323Z,5.77
2018-02-12T13:43:38.742Z,6.03
2018-02-12T13:48:41.854Z,6.77
2018-02-12T13:53:44.943Z,4.77
2018-02-12T13:58:48.011Z,15.97
2018-02-12T14:03:51.127Z,5.27
2018-02-12T14:08:54.194Z,6.43
2018-02-12T14:13:57.544Z,5.93
2018-02-12T14:19:01.538Z,5.18
2018-02-12T14:24:04.757Z,9.37
2018-02-12T14:29:07.866Z,5.40
2018-02-12T14:34:11.747Z,5.30
2018-02-12T14:39:15.284Z,7.63
2018-02-12T14:44:19.216Z,7.70
2018-02-12T14:49:22.284Z,7.87
2018-02-12T14:54:26.531Z,6.17
2018-02-12T14:59:30.361Z,8.07
2018-02-12T15:04:33.461Z,6.90
2018-02-12T15:09:36.529Z,2.93
2018-02-12T15:14:40.353Z,5.13
2018-02-12T15:19:44.607Z,6.27
2018-02-12T15:24:48.550Z,10.90
2018-02-12T15:29:52.541Z,6.10
2018-02-12T15:34:56.462Z,5.60
2018-02-12T15:40:00.384Z,9.00
2018-02-12T15:45:04.594Z,7.13
2018-02-12T15:50:08.052Z,3.90
2018-02-12T15:55:11.537Z,5.63
2018-02-12T16:00:15.498Z,5.00
2018-02-12T16:05:19.978Z,4.37
2018-02-12T16:10:23.848Z,6.87
2018-02-12T16:15:27.728Z,8.93
2018-02-12T16:20:31.791Z,7.47
2018-02-12T16:25:36.245Z,7.53
2018-02-12T16:30:40.675Z,9.17
2018-02-12T16:35:44.505Z,9.30
2018-02-12T16:40:48.370Z,7.30
2018-02-12T16:45:51.442Z,8.03
2018-02-12T16:50:55.314Z,6.47
2018-02-12T16:55:59.519Z,7.07
2018-02-12T17:01:03.988Z,6.07
2018-02-12T17:06:08.562Z,8.07
2018-02-12T17:11:11.643Z,7.80
2018-02-12T17:16:14.765Z,8.20
2018-02-12T17:21:17.825Z,6.82
2018-02-12T17:26:22.077Z,10.30
2018-02-12T17:31:25.173Z,9.23
2018-02-12T17:36:28.295Z,10.73
2018-02-12T17:41:31.410Z,12.20
2018-02-12T17:46:34.510Z,7.37
2018-02-12T17:51:38.377Z,6.47
2018-02-12T17:56:42.860Z,7.37
2018-02-12T18:01:45.921Z,10.80
2018-02-12T18:06:50.357Z,10.70
2018-02-12T18:11:53.843Z,13.53
2018-02-12T18:16:57.838Z,8.25
2018-02-12T18:22:02.266Z,6.95
2018-02-12T18:27:07.643Z,9.73
2018-02-12T18:32:10.710Z,11.27
2018-02-12T18:37:13.820Z,8.13
2018-02-12T18:42:18.051Z,8.33
2018-02-12T18:47:22.052Z,9.13
2018-02-12T18:52:25.102Z,9.97
2018-02-12T18:57:29.599Z,8.70
2018-02-12T19:02:33.128Z,11.50
2018-02-12T19:07:36.197Z,11.70
2018-02-12T19:12:40.260Z,11.53
2018-02-12T19:17:43.360Z,9.37
2018-02-12T19:22:47.232Z,8.30
2018-02-12T19:27:51.651Z,10.43
2018-02-12T19:32:55.492Z,9.63
2018-02-12T19:37:59.963Z,11.07
2018-02-12T19:43:04.394Z,8.40
2018-02-12T19:48:08.855Z,8.03
2018-02-12T19:53:13.321Z,9.60
2018-02-12T19:58:17.163Z,7.57
2018-02-12T20:03:21.633Z,12.63
2018-02-12T20:08:31.399Z,8.97
2018-02-12T20:13:34.476Z,10.27
2018-02-12T20:18:43.380Z,9.43
2018-02-12T20:23:46.454Z,10.87
2018-02-12T20:28:49.519Z,8.90
2018-02-12T20:33:52.583Z,7.53
2018-02-12T20:38:55.655Z,8.17
2018-02-12T20:44:00.701Z,6.53
2018-02-12T20:49:05.363Z,9.00
2018-02-12T20:54:08.608Z,10.37
2018-02-12T20:59:13.304Z,9.00
2018-02-12T21:04:17.242Z,10.57
2018-02-12T21:09:20.417Z,12.03
2018-02-12T21:14:23.528Z,12.57
2018-02-12T21:19:27.849Z,13.17
2018-02-12T21:24:30.971Z,13.67
2018-02-12T21:29:34.158Z,16.67
2018-02-12T21:35:03.826Z,16.60
2018-02-12T21:40:07.375Z,12.88
2018-02-12T21:45:10.945Z,14.40
2018-02-12T21:50:14.484Z,16.33
2018-02-12T21:55:17.983Z,14.77
2018-02-12T22:00:21.108Z,16.23
2018-02-12T22:05:25.039Z,16.37
2018-02-12T22:10:29.824Z,15.33
2018-02-12T22:15:33.028Z,19.05
2018-02-12T22:20:37.316Z,18.58
2018-02-12T22:25:41.546Z,17.43
2018-02-12T22:30:45.510Z,16.47
2018-02-12T22:35:48.731Z,16.20
2018-02-12T22:40:52.642Z,20.30
2018-02-12T22:45:55.765Z,14.77
2018-02-12T22:50:58.914Z,15.37
2018-02-12T22:56:02.850Z,12.47
2018-02-12T23:01:06.619Z,13.97
2018-02-12T23:06:10.166Z,10.20
2018-02-12T23:11:13.347Z,11.00
2018-02-12T23:16:17.452Z,12.37
2018-02-12T23:21:21.376Z,12.07
2018-02-12T23:26:25.283Z,10.63
2018-02-12T23:31:28.498Z,11.67
2018-02-12T23:36:31.727Z,17.10
2018-02-12T23:41:36.041Z,14.50
2018-02-12T23:46:39.242Z,14.63
2018-02-12T23:51:43.523Z,16.93
2018-02-12T23:56:47.480Z,14.40
